sensor_id;sensor_type;location;lat;lon;timestamp;pressure;altitude;pressure_sealevel;temperature;humidity
63691;BME280;49837;57.280;27.070;2023-05-07T00:00:57;101644.23;;;-3.85;83.74
63691;BME280;49837;57.280;27.070;2023-05-07T00:01:57;101642.57;;;-3.86;83.87
63691;BME280;49837;57.280;27.070;2023-05-07T00:02:57;101641.31;;;-3.86;83.94
63691;BME280;49837;57.280;27.070;2023-05-07T00:03:58;101641.82;;;-3.9;84.21
63691;BME280;49837;57.280;27.070;2023-05-07T00:04:58;101641.0;;;-3.88;84.33
63691;BME280;49837;57.280;27.070;2023-05-07T00:05:59;101646.79;;;-3.88;84.21
63691;BME280;49837;57.280;27.070;2023-05-07T00:06:59;101647.84;;;-3.88;84.16
63691;BME280;49837;57.280;27.070;2023-05-07T00:07:59;101649.2;;;-3.9;84.21
63691;BME280;49837;57.280;27.070;2023-05-07T00:09:00;101648.91;;;-3.91;84.27
63691;BME280;49837;57.280;27.070;2023-05-07T00:10:00;101650.48;;;-3.94;84.34
63691;BME280;49837;57.280;27.070;2023-05-07T00:11:01;101648.59;;;-3.96;84.55
63691;BME280;49837;57.280;27.070;2023-05-07T00:12:01;101650.34;;;-3.96;84.77
63691;BME280;49837;57.280;27.070;2023-05-07T00:13:01;101649.14;;;-3.97;84.79
63691;BME280;49837;57.280;27.070;2023-05-07T00:14:02;101649.66;;;-3.98;84.87
63691;BME280;49837;57.280;27.070;2023-05-07T00:15:03;101650.58;;;-3.99;84.84
63691;BME280;49837;57.280;27.070;2023-05-07T00:16:03;101649.27;;;-3.98;84.86
63691;BME280;49837;57.280;27.070;2023-05-07T00:17:03;101655.13;;;-4.03;85.01
63691;BME280;49837;57.280;27.070;2023-05-07T00:18:03;101656.8;;;-4.03;85.07
63691;BME280;49837;57.280;27.070;2023-05-07T00:19:04;101656.29;;;-4.02;84.95
63691;BME280;49837;57.280;27.070;2023-05-07T00:20:05;101656.54;;;-4.02;84.86
63691;BME280;49837;57.280;27.070;2023-05-07T00:21:04;101658.53;;;-4.01;84.77
63691;BME280;49837;57.280;27.070;2023-05-07T00:22:05;101659.69;;;-4.01;84.87
63691;BME280;49837;57.280;27.070;2023-05-07T00:23:05;101661.5;;;-3.99;84.92
63691;BME280;49837;57.280;27.070;2023-05-07T00:24:06;101658.02;;;-3.96;84.75
63691;BME280;49837;57.280;27.070;2023-05-07T00:25:06;101658.27;;;-3.95;84.64
63691;BME280;49837;57.280;27.070;2023-05-07T00:26:06;101664.52;;;-3.94;84.59
63691;BME280;49837;57.280;27.070;2023-05-07T00:27:07;101663.73;;;-3.94;84.53
63691;BME280;49837;57.280;27.070;2023-05-07T00:28:07;101660.66;;;-3.92;84.29
63691;BME280;49837;57.280;27.070;2023-05-07T00:29:08;101659.84;;;-3.9;84.25
63691;BME280;49837;57.280;27.070;2023-05-07T00:30:08;101663.23;;;-3.89;84.07
63691;BME280;49837;57.280;27.070;2023-05-07T00:31:09;101662.27;;;-3.94;84.14
63691;BME280;49837;57.280;27.070;2023-05-07T00:32:09;101663.38;;;-3.99;84.42
63691;BME280;49837;57.280;27.070;2023-05-07T00:33:09;101663.59;;;-4.04;84.76
63691;BME280;49837;57.280;27.070;2023-05-07T00:34:10;101665.02;;;-4.05;85.18
63691;BME280;49837;57.280;27.070;2023-05-07T00:35:10;101664.25;;;-4.15;85.23
63691;BME280;49837;57.280;27.070;2023-05-07T00:36:10;101665.12;;;-4.17;85.41
63691;BME280;49837;57.280;27.070;2023-05-07T00:37:11;101664.98;;;-4.2;85.32
63691;BME280;49837;57.280;27.070;2023-05-07T00:38:11;101667.16;;;-4.22;85.39
63691;BME280;49837;57.280;27.070;2023-05-07T00:39:12;101670.57;;;-4.25;85.4
63691;BME280;49837;57.280;27.070;2023-05-07T00:40:12;101666.0;;;-4.26;85.52
63691;BME280;49837;57.280;27.070;2023-05-07T00:41:12;101668.54;;;-4.25;85.54
63691;BME280;49837;57.280;27.070;2023-05-07T00:42:13;101666.23;;;-4.24;85.6
63691;BME280;49837;57.280;27.070;2023-05-07T00:43:13;101670.98;;;-4.25;85.62
63691;BME280;49837;57.280;27.070;2023-05-07T00:44:14;101665.94;;;-4.24;85.63
63691;BME280;49837;57.280;27.070;2023-05-07T00:45:14;101664.26;;;-4.25;85.63
63691;BME280;49837;57.280;27.070;2023-05-07T00:46:14;101666.55;;;-4.27;85.68
63691;BME280;49837;57.280;27.070;2023-05-07T00:47:15;101667.62;;;-4.29;85.39
63691;BME280;49837;57.280;27.070;2023-05-07T00:48:15;101670.56;;;-4.34;85.5
63691;BME280;49837;57.280;27.070;2023-05-07T00:49:16;101666.24;;;-4.31;85.46
63691;BME280;49837;57.280;27.070;2023-05-07T00:50:16;101666.59;;;-4.35;85.67
63691;BME280;49837;57.280;27.070;2023-05-07T00:51:17;101665.64;;;-4.33;85.5
63691;BME280;49837;57.280;27.070;2023-05-07T00:52:17;101664.38;;;-4.32;85.5
63691;BME280;49837;57.280;27.070;2023-05-07T00:53:17;101668.23;;;-4.33;85.48
63691;BME280;49837;57.280;27.070;2023-05-07T00:54:17;101667.25;;;-4.35;85.68
63691;BME280;49837;57.280;27.070;2023-05-07T00:55:18;101666.48;;;-4.37;85.83
63691;BME280;49837;57.280;27.070;2023-05-07T00:56:19;101670.67;;;-4.36;85.88
63691;BME280;49837;57.280;27.070;2023-05-07T00:57:19;101672.39;;;-4.39;85.84
63691;BME280;49837;57.280;27.070;2023-05-07T00:58:19;101673.12;;;-4.33;85.78
63691;BME280;49837;57.280;27.070;2023-05-07T00:59:20;101676.16;;;-4.37;85.89
63691;BME280;49837;57.280;27.070;2023-05-07T01:00:20;101672.3;;;-4.42;85.92
63691;BME280;49837;57.280;27.070;2023-05-07T01:01:20;101675.5;;;-4.37;85.78
63691;BME280;49837;57.280;27.070;2023-05-07T01:02:20;101680.48;;;-4.37;86.09
63691;BME280;49837;57.280;27.070;2023-05-07T01:03:21;101676.27;;;-4.35;85.91
63691;BME280;49837;57.280;27.070;2023-05-07T01:04:21;101679.02;;;-4.42;86.06
63691;BME280;49837;57.280;27.070;2023-05-07T01:05:23;101684.31;;;-4.44;85.93
63691;BME280;49837;57.280;27.070;2023-05-07T01:06:23;101681.05;;;-4.42;85.87
63691;BME280;49837;57.280;27.070;2023-05-07T01:07:23;101682.85;;;-4.41;86.04
63691;BME280;49837;57.280;27.070;2023-05-07T01:08:24;101677.27;;;-4.47;85.86
63691;BME280;49837;57.280;27.070;2023-05-07T01:09:24;101679.7;;;-4.5;86.08
63691;BME280;49837;57.280;27.070;2023-05-07T01:10:25;101680.29;;;-4.51;86.17
63691;BME280;49837;57.280;27.070;2023-05-07T01:11:25;101680.63;;;-4.52;86.23
63691;BME280;49837;57.280;27.070;2023-05-07T01:12:25;101680.03;;;-4.54;86.39
63691;BME280;49837;57.280;27.070;2023-05-07T01:13:25;101682.42;;;-4.55;86.25
63691;BME280;49837;57.280;27.070;2023-05-07T01:14:26;101681.97;;;-4.53;86.4
63691;BME280;49837;57.280;27.070;2023-05-07T01:15:26;101679.33;;;-4.52;86.5
63691;BME280;49837;57.280;27.070;2023-05-07T01:16:26;101678.7;;;-4.53;86.41
63691;BME280;49837;57.280;27.070;2023-05-07T01:17:27;101681.12;;;-4.55;86.35
63691;BME280;49837;57.280;27.070;2023-05-07T01:18:27;101678.95;;;-4.56;86.32
63691;BME280;49837;57.280;27.070;2023-05-07T01:19:29;101681.72;;;-4.56;86.37
63691;BME280;49837;57.280;27.070;2023-05-07T01:20:28;101685.08;;;-4.57;86.52
63691;BME280;49837;57.280;27.070;2023-05-07T01:21:32;101686.9;;;-4.55;86.44
63691;BME280;49837;57.280;27.070;2023-05-07T01:22:34;101686.77;;;-4.56;86.42
63691;BME280;49837;57.280;27.070;2023-05-07T01:23:33;101686.73;;;-4.56;86.35
63691;BME280;49837;57.280;27.070;2023-05-07T01:24:32;101689.31;;;-4.57;86.38
63691;BME280;49837;57.280;27.070;2023-05-07T01:25:33;101685.0;;;-4.62;86.46
63691;BME280;49837;57.280;27.070;2023-05-07T01:26:33;101689.19;;;-4.66;86.32
63691;BME280;49837;57.280;27.070;2023-05-07T01:27:34;101691.14;;;-4.68;86.16
63691;BME280;49837;57.280;27.070;2023-05-07T01:28:34;101688.97;;;-4.69;86.32
63691;BME280;49837;57.280;27.070;2023-05-07T01:29:34;101689.88;;;-4.72;86.1
63691;BME280;49837;57.280;27.070;2023-05-07T01:30:36;101693.03;;;-4.72;86.03
63691;BME280;49837;57.280;27.070;2023-05-07T01:31:36;101693.25;;;-4.7;86.29
63691;BME280;49837;57.280;27.070;2023-05-07T01:32:49;101689.84;;;-4.71;86.35
63691;BME280;49837;57.280;27.070;2023-05-07T01:33:38;101690.72;;;-4.7;86.27
63691;BME280;49837;57.280;27.070;2023-05-07T01:34:39;101692.91;;;-4.7;86.43
63691;BME280;49837;57.280;27.070;2023-05-07T01:35:41;101692.82;;;-4.7;86.43
63691;BME280;49837;57.280;27.070;2023-05-07T01:36:42;101692.75;;;-4.73;86.4
63691;BME280;49837;57.280;27.070;2023-05-07T01:37:41;101687.43;;;-4.69;86.57
63691;BME280;49837;57.280;27.070;2023-05-07T01:38:42;101694.5;;;-4.67;86.53
63691;BME280;49837;57.280;27.070;2023-05-07T01:39:43;101688.73;;;-4.72;86.51
63691;BME280;49837;57.280;27.070;2023-05-07T01:40:44;101686.28;;;-4.72;86.46
63691;BME280;49837;57.280;27.070;2023-05-07T01:41:45;101685.7;;;-4.71;86.54
63691;BME280;49837;57.280;27.070;2023-05-07T01:42:46;101683.17;;;-4.71;86.47
63691;BME280;49837;57.280;27.070;2023-05-07T01:43:46;101685.24;;;-4.73;86.66
63691;BME280;49837;57.280;27.070;2023-05-07T01:44:46;101688.45;;;-4.75;86.81
63691;BME280;49837;57.280;27.070;2023-05-07T01:45:46;101688.84;;;-4.79;86.75
63691;BME280;49837;57.280;27.070;2023-05-07T01:46:47;101686.44;;;-4.83;86.82
63691;BME280;49837;57.280;27.070;2023-05-07T01:47:47;101684.53;;;-4.86;86.85
63691;BME280;49837;57.280;27.070;2023-05-07T01:48:47;101683.42;;;-4.88;86.84
63691;BME280;49837;57.280;27.070;2023-05-07T01:49:48;101686.2;;;-4.88;86.96
63691;BME280;49837;57.280;27.070;2023-05-07T01:50:48;101687.79;;;-4.86;87.05
63691;BME280;49837;57.280;27.070;2023-05-07T01:51:49;101680.77;;;-4.82;87.04
63691;BME280;49837;57.280;27.070;2023-05-07T01:52:50;101682.53;;;-4.83;86.82
63691;BME280;49837;57.280;27.070;2023-05-07T01:53:49;101685.87;;;-4.84;86.82
63691;BME280;49837;57.280;27.070;2023-05-07T01:54:49;101682.95;;;-4.85;86.88
63691;BME280;49837;57.280;27.070;2023-05-07T01:55:50;101687.14;;;-4.83;86.84
63691;BME280;49837;57.280;27.070;2023-05-07T01:56:50;101684.09;;;-4.85;86.88
63691;BME280;49837;57.280;27.070;2023-05-07T01:57:50;101685.45;;;-4.87;86.83
63691;BME280;49837;57.280;27.070;2023-05-07T01:58:51;101685.23;;;-4.88;86.71
63691;BME280;49837;57.280;27.070;2023-05-07T01:59:52;101686.96;;;-4.86;86.77
63691;BME280;49837;57.280;27.070;2023-05-07T02:00:52;101686.99;;;-4.87;86.58
63691;BME280;49837;57.280;27.070;2023-05-07T02:01:52;101687.8;;;-4.91;86.76
63691;BME280;49837;57.280;27.070;2023-05-07T02:02:52;101687.12;;;-4.93;86.86
63691;BME280;49837;57.280;27.070;2023-05-07T02:03:53;101688.97;;;-4.92;86.9
63691;BME280;49837;57.280;27.070;2023-05-07T02:04:53;101689.75;;;-4.96;87.13
63691;BME280;49837;57.280;27.070;2023-05-07T02:05:53;101691.63;;;-4.95;87.13
63691;BME280;49837;57.280;27.070;2023-05-07T02:06:54;101691.32;;;-4.95;87.31
63691;BME280;49837;57.280;27.070;2023-05-07T02:07:54;101693.41;;;-4.94;87.52
63691;BME280;49837;57.280;27.070;2023-05-07T02:08:55;101694.1;;;-4.96;87.61
63691;BME280;49837;57.280;27.070;2023-05-07T02:09:55;101690.72;;;-4.9;87.64
63691;BME280;49837;57.280;27.070;2023-05-07T02:10:55;101693.39;;;-4.86;87.6
63691;BME280;49837;57.280;27.070;2023-05-07T02:11:56;101690.82;;;-4.88;87.56
63691;BME280;49837;57.280;27.070;2023-05-07T02:12:56;101692.41;;;-4.89;87.41
63691;BME280;49837;57.280;27.070;2023-05-07T02:13:57;101694.06;;;-4.92;87.53
63691;BME280;49837;57.280;27.070;2023-05-07T02:14:57;101700.73;;;-4.9;87.68
63691;BME280;49837;57.280;27.070;2023-05-07T02:15:57;101696.09;;;-4.9;87.78
63691;BME280;49837;57.280;27.070;2023-05-07T02:16:58;101697.41;;;-4.82;87.58
63691;BME280;49837;57.280;27.070;2023-05-07T02:18:06;101697.91;;;-4.84;87.58
63691;BME280;49837;57.280;27.070;2023-05-07T02:19:03;101697.04;;;-4.8;87.51
63691;BME280;49837;57.280;27.070;2023-05-07T02:20:04;101700.59;;;-4.82;87.49
63691;BME280;49837;57.280;27.070;2023-05-07T02:21:04;101701.03;;;-4.89;87.37
63691;BME280;49837;57.280;27.070;2023-05-07T02:22:04;101701.45;;;-4.86;87.3
63691;BME280;49837;57.280;27.070;2023-05-07T02:23:05;101699.82;;;-4.86;87.32
63691;BME280;49837;57.280;27.070;2023-05-07T02:24:05;101700.1;;;-4.84;87.43
63691;BME280;49837;57.280;27.070;2023-05-07T02:25:06;101696.89;;;-4.84;87.66
63691;BME280;49837;57.280;27.070;2023-05-07T02:26:06;101700.77;;;-4.83;87.61
63691;BME280;49837;57.280;27.070;2023-05-07T02:27:06;101701.31;;;-4.78;87.72
63691;BME280;49837;57.280;27.070;2023-05-07T02:28:07;101701.8;;;-4.8;87.77
63691;BME280;49837;57.280;27.070;2023-05-07T02:29:07;101701.7;;;-4.81;87.72
63691;BME280;49837;57.280;27.070;2023-05-07T02:30:08;101701.03;;;-4.8;87.78
63691;BME280;49837;57.280;27.070;2023-05-07T02:31:08;101701.48;;;-4.82;87.64
63691;BME280;49837;57.280;27.070;2023-05-07T02:32:08;101704.88;;;-4.81;87.44
63691;BME280;49837;57.280;27.070;2023-05-07T02:33:09;101704.89;;;-4.82;87.35
63691;BME280;49837;57.280;27.070;2023-05-07T02:34:09;101708.24;;;-4.84;87.35
63691;BME280;49837;57.280;27.070;2023-05-07T02:35:10;101707.2;;;-4.85;87.35
63691;BME280;49837;57.280;27.070;2023-05-07T02:36:11;101706.77;;;-4.87;87.34
63691;BME280;49837;57.280;27.070;2023-05-07T02:37:10;101710.84;;;-4.88;87.35
63691;BME280;49837;57.280;27.070;2023-05-07T02:38:10;101708.36;;;-4.89;87.39
63691;BME280;49837;57.280;27.070;2023-05-07T02:39:12;101707.37;;;-4.85;87.28
63691;BME280;49837;57.280;27.070;2023-05-07T02:40:12;101708.41;;;-4.87;87.04
63691;BME280;49837;57.280;27.070;2023-05-07T02:41:12;101706.87;;;-4.84;86.95
63691;BME280;49837;57.280;27.070;2023-05-07T02:42:12;101711.04;;;-4.8;87.03
63691;BME280;49837;57.280;27.070;2023-05-07T02:43:12;101710.08;;;-4.75;87.12
63691;BME280;49837;57.280;27.070;2023-05-07T02:44:13;101710.89;;;-4.75;86.93
63691;BME280;49837;57.280;27.070;2023-05-07T02:45:14;101708.77;;;-4.77;86.86
63691;BME280;49837;57.280;27.070;2023-05-07T02:46:14;101711.02;;;-4.79;86.97
63691;BME280;49837;57.280;27.070;2023-05-07T02:47:15;101711.09;;;-4.77;87.07
63691;BME280;49837;57.280;27.070;2023-05-07T02:48:15;101713.88;;;-4.72;87.01
63691;BME280;49837;57.280;27.070;2023-05-07T02:49:15;101715.55;;;-4.71;86.99
63691;BME280;49837;57.280;27.070;2023-05-07T02:50:16;101717.17;;;-4.7;87.03
63691;BME280;49837;57.280;27.070;2023-05-07T02:51:20;101716.83;;;-4.66;87.02
63691;BME280;49837;57.280;27.070;2023-05-07T02:52:21;101719.52;;;-4.66;86.95
63691;BME280;49837;57.280;27.070;2023-05-07T02:53:22;101721.76;;;-4.68;86.91
63691;BME280;49837;57.280;27.070;2023-05-07T02:54:23;101718.83;;;-4.66;86.88
63691;BME280;49837;57.280;27.070;2023-05-07T02:55:23;101720.56;;;-4.67;86.81
63691;BME280;49837;57.280;27.070;2023-05-07T02:56:25;101722.34;;;-4.67;86.89
63691;BME280;49837;57.280;27.070;2023-05-07T02:57:24;101720.25;;;-4.66;86.82
63691;BME280;49837;57.280;27.070;2023-05-07T02:58:24;101720.25;;;-4.66;86.8
63691;BME280;49837;57.280;27.070;2023-05-07T02:59:25;101725.98;;;-4.63;86.82
63691;BME280;49837;57.280;27.070;2023-05-07T03:00:26;101719.86;;;-4.63;86.75
63691;BME280;49837;57.280;27.070;2023-05-07T03:01:25;101724.91;;;-4.61;86.84
63691;BME280;49837;57.280;27.070;2023-05-07T03:02:26;101727.02;;;-4.58;86.88
63691;BME280;49837;57.280;27.070;2023-05-07T03:03:26;101729.17;;;-4.55;86.88
63691;BME280;49837;57.280;27.070;2023-05-07T03:04:27;101728.95;;;-4.49;86.76
63691;BME280;49837;57.280;27.070;2023-05-07T03:05:27;101728.77;;;-4.43;86.66
63691;BME280;49837;57.280;27.070;2023-05-07T03:06:27;101732.28;;;-4.4;86.66
63691;BME280;49837;57.280;27.070;2023-05-07T03:07:28;101731.98;;;-4.35;86.65
63691;BME280;49837;57.280;27.070;2023-05-07T03:08:28;101728.22;;;-4.3;86.57
63691;BME280;49837;57.280;27.070;2023-05-07T03:09:28;101731.11;;;-4.27;86.63
63691;BME280;49837;57.280;27.070;2023-05-07T03:10:29;101730.68;;;-4.26;86.61
63691;BME280;49837;57.280;27.070;2023-05-07T03:11:29;101731.14;;;-4.25;86.67
63691;BME280;49837;57.280;27.070;2023-05-07T03:12:30;101731.12;;;-4.26;86.73
63691;BME280;49837;57.280;27.070;2023-05-07T03:13:30;101734.78;;;-4.22;86.69
63691;BME280;49837;57.280;27.070;2023-05-07T03:14:30;101731.63;;;-4.2;86.74
63691;BME280;49837;57.280;27.070;2023-05-07T03:15:32;101732.45;;;-4.15;86.81
63691;BME280;49837;57.280;27.070;2023-05-07T03:16:32;101732.97;;;-4.13;86.75
63691;BME280;49837;57.280;27.070;2023-05-07T03:17:33;101736.82;;;-4.14;86.64
63691;BME280;49837;57.280;27.070;2023-05-07T03:18:33;101737.86;;;-4.13;86.65
63691;BME280;49837;57.280;27.070;2023-05-07T03:19:34;101737.73;;;-4.11;86.7
63691;BME280;49837;57.280;27.070;2023-05-07T03:20:34;101738.86;;;-4.06;86.5
63691;BME280;49837;57.280;27.070;2023-05-07T03:21:35;101739.74;;;-4.02;86.61
63691;BME280;49837;57.280;27.070;2023-05-07T03:22:35;101739.45;;;-4.0;86.33
63691;BME280;49837;57.280;27.070;2023-05-07T03:23:35;101740.16;;;-3.96;86.34
63691;BME280;49837;57.280;27.070;2023-05-07T03:24:36;101735.09;;;-3.92;86.35
63691;BME280;49837;57.280;27.070;2023-05-07T03:25:36;101735.12;;;-3.92;86.32
63691;BME280;49837;57.280;27.070;2023-05-07T03:26:37;101735.34;;;-3.89;86.18
63691;BME280;49837;57.280;27.070;2023-05-07T03:27:37;101738.43;;;-3.87;86.12
63691;BME280;49837;57.280;27.070;2023-05-07T03:28:37;101740.0;;;-3.88;86.12
63691;BME280;49837;57.280;27.070;2023-05-07T03:29:38;101737.22;;;-3.84;86.2
63691;BME280;49837;57.280;27.070;2023-05-07T03:30:38;101738.2;;;-3.77;85.95
63691;BME280;49837;57.280;27.070;2023-05-07T03:31:38;101739.83;;;-3.75;85.75
63691;BME280;49837;57.280;27.070;2023-05-07T03:32:39;101742.09;;;-3.74;85.62
63691;BME280;49837;57.280;27.070;2023-05-07T03:33:50;101743.98;;;-3.7;85.47
63691;BME280;49837;57.280;27.070;2023-05-07T03:34:43;101742.08;;;-3.66;85.36
63691;BME280;49837;57.280;27.070;2023-05-07T03:35:44;101741.23;;;-3.65;85.28
63691;BME280;49837;57.280;27.070;2023-05-07T03:36:44;101743.94;;;-3.61;85.31
63691;BME280;49837;57.280;27.070;2023-05-07T03:37:44;101741.81;;;-3.59;85.34
63691;BME280;49837;57.280;27.070;2023-05-07T03:38:45;101746.89;;;-3.54;85.28
63691;BME280;49837;57.280;27.070;2023-05-07T03:39:45;101745.2;;;-3.5;85.15
63691;BME280;49837;57.280;27.070;2023-05-07T03:40:46;101746.69;;;-3.45;85.0
63691;BME280;49837;57.280;27.070;2023-05-07T03:41:46;101746.94;;;-3.45;85.0
63691;BME280;49837;57.280;27.070;2023-05-07T03:42:46;101747.2;;;-3.41;84.98
63691;BME280;49837;57.280;27.070;2023-05-07T03:43:47;101747.12;;;-3.37;85.05
63691;BME280;49837;57.280;27.070;2023-05-07T03:44:47;101751.3;;;-3.33;85.03
63691;BME280;49837;57.280;27.070;2023-05-07T03:45:47;101748.86;;;-3.3;84.88
63691;BME280;49837;57.280;27.070;2023-05-07T03:46:48;101756.88;;;-3.24;84.87
63691;BME280;49837;57.280;27.070;2023-05-07T03:47:48;101756.11;;;-3.24;84.83
63691;BME280;49837;57.280;27.070;2023-05-07T03:48:49;101754.52;;;-3.18;84.81
63691;BME280;49837;57.280;27.070;2023-05-07T03:49:49;101751.81;;;-3.12;84.76
63691;BME280;49837;57.280;27.070;2023-05-07T03:50:49;101754.58;;;-3.06;84.7
63691;BME280;49837;57.280;27.070;2023-05-07T03:51:50;101758.46;;;-3.02;84.56
63691;BME280;49837;57.280;27.070;2023-05-07T03:52:50;101759.75;;;-2.97;84.49
63691;BME280;49837;57.280;27.070;2023-05-07T03:53:51;101759.08;;;-2.88;84.29
63691;BME280;49837;57.280;27.070;2023-05-07T03:54:52;101758.06;;;-2.8;84.08
63691;BME280;49837;57.280;27.070;2023-05-07T03:55:51;101760.9;;;-2.71;83.87
63691;BME280;49837;57.280;27.070;2023-05-07T03:56:52;101762.72;;;-2.69;83.85
63691;BME280;49837;57.280;27.070;2023-05-07T03:57:52;101764.0;;;-2.61;83.69
63691;BME280;49837;57.280;27.070;2023-05-07T03:58:53;101767.33;;;-2.58;83.48
63691;BME280;49837;57.280;27.070;2023-05-07T03:59:53;101769.39;;;-2.53;83.4
63691;BME280;49837;57.280;27.070;2023-05-07T04:00:54;101764.94;;;-2.48;83.14
63691;BME280;49837;57.280;27.070;2023-05-07T04:01:54;101768.95;;;-2.38;82.83
63691;BME280;49837;57.280;27.070;2023-05-07T04:02:54;101769.89;;;-2.34;82.6
63691;BME280;49837;57.280;27.070;2023-05-07T04:03:55;101769.22;;;-2.29;82.49
63691;BME280;49837;57.280;27.070;2023-05-07T04:04:55;101769.23;;;-2.22;82.35
63691;BME280;49837;57.280;27.070;2023-05-07T04:05:56;101772.16;;;-2.19;82.13
63691;BME280;49837;57.280;27.070;2023-05-07T04:06:56;101773.3;;;-2.16;81.9
63691;BME280;49837;57.280;27.070;2023-05-07T04:07:58;101773.8;;;-2.1;81.69
63691;BME280;49837;57.280;27.070;2023-05-07T04:08:57;101774.66;;;-2.04;81.62
63691;BME280;49837;57.280;27.070;2023-05-07T04:09:57;101775.53;;;-1.98;81.36
63691;BME280;49837;57.280;27.070;2023-05-07T04:10:58;101778.34;;;-1.94;81.33
63691;BME280;49837;57.280;27.070;2023-05-07T04:11:58;101780.05;;;-1.85;80.91
63691;BME280;49837;57.280;27.070;2023-05-07T04:12:58;101783.73;;;-1.8;80.45
63691;BME280;49837;57.280;27.070;2023-05-07T04:13:59;101785.36;;;-1.69;80.02
63691;BME280;49837;57.280;27.070;2023-05-07T04:14:59;101779.73;;;-1.6;79.73
63691;BME280;49837;57.280;27.070;2023-05-07T04:16:02;101785.53;;;-1.56;79.43
63691;BME280;49837;57.280;27.070;2023-05-07T04:17:00;101787.38;;;-1.5;79.42
63691;BME280;49837;57.280;27.070;2023-05-07T04:18:00;101790.0;;;-1.48;78.95
63691;BME280;49837;57.280;27.070;2023-05-07T04:19:01;101788.99;;;-1.46;78.96
63691;BME280;49837;57.280;27.070;2023-05-07T04:20:01;101791.98;;;-1.4;78.68
63691;BME280;49837;57.280;27.070;2023-05-07T04:21:02;101790.28;;;-1.36;78.19
63691;BME280;49837;57.280;27.070;2023-05-07T04:22:02;101790.84;;;-1.29;78.05
63691;BME280;49837;57.280;27.070;2023-05-07T04:23:03;101789.72;;;-1.25;77.88
63691;BME280;49837;57.280;27.070;2023-05-07T04:24:04;101789.34;;;-1.15;77.95
63691;BME280;49837;57.280;27.070;2023-05-07T04:25:04;101790.58;;;-1.11;77.5
63691;BME280;49837;57.280;27.070;2023-05-07T04:26:04;101793.52;;;-1.03;77.46
63691;BME280;49837;57.280;27.070;2023-05-07T04:27:04;101791.59;;;-1.02;77.02
63691;BME280;49837;57.280;27.070;2023-05-07T04:28:04;101787.49;;;-0.95;77.14
63691;BME280;49837;57.280;27.070;2023-05-07T04:29:05;101787.28;;;-0.87;76.78
63691;BME280;49837;57.280;27.070;2023-05-07T04:30:06;101790.62;;;-0.77;76.71
63691;BME280;49837;57.280;27.070;2023-05-07T04:31:06;101789.97;;;-0.7;76.08
63691;BME280;49837;57.280;27.070;2023-05-07T04:32:06;101791.53;;;-0.68;76.06
63691;BME280;49837;57.280;27.070;2023-05-07T04:33:07;101793.39;;;-0.6;75.81
63691;BME280;49837;57.280;27.070;2023-05-07T04:34:07;101793.22;;;-0.5;76.52
63691;BME280;49837;57.280;27.070;2023-05-07T04:35:07;101790.94;;;-0.4;75.68
63691;BME280;49837;57.280;27.070;2023-05-07T04:36:08;101792.52;;;-0.35;75.19
63691;BME280;49837;57.280;27.070;2023-05-07T04:37:08;101790.67;;;-0.26;75.51
63691;BME280;49837;57.280;27.070;2023-05-07T04:38:08;101792.45;;;-0.16;75.75
63691;BME280;49837;57.280;27.070;2023-05-07T04:39:09;101791.2;;;-0.07;74.96
63691;BME280;49837;57.280;27.070;2023-05-07T04:40:09;101794.11;;;-0.02;73.81
63691;BME280;49837;57.280;27.070;2023-05-07T04:41:09;101794.94;;;0.03;73.92
63691;BME280;49837;57.280;27.070;2023-05-07T04:42:14;101796.02;;;0.05;72.82
63691;BME280;49837;57.280;27.070;2023-05-07T04:43:12;101796.66;;;0.17;73.81
63691;BME280;49837;57.280;27.070;2023-05-07T04:44:12;101797.23;;;0.28;72.97
63691;BME280;49837;57.280;27.070;2023-05-07T04:45:12;101797.44;;;0.36;72.74
63691;BME280;49837;57.280;27.070;2023-05-07T04:46:13;101802.16;;;0.39;72.67
63691;BME280;49837;57.280;27.070;2023-05-07T04:47:13;101801.66;;;0.43;71.69
63691;BME280;49837;57.280;27.070;2023-05-07T04:48:13;101801.77;;;0.49;72.76
63691;BME280;49837;57.280;27.070;2023-05-07T04:49:14;101802.23;;;0.61;72.49
63691;BME280;49837;57.280;27.070;2023-05-07T04:50:14;101801.85;;;0.66;71.12
63691;BME280;49837;57.280;27.070;2023-05-07T04:51:14;101802.06;;;0.68;71.36
63691;BME280;49837;57.280;27.070;2023-05-07T04:52:15;101806.73;;;0.67;70.86
63691;BME280;49837;57.280;27.070;2023-05-07T04:53:15;101806.25;;;0.65;71.05
63691;BME280;49837;57.280;27.070;2023-05-07T04:54:15;101807.31;;;0.65;70.59
63691;BME280;49837;57.280;27.070;2023-05-07T04:55:16;101804.02;;;0.72;70.15
63691;BME280;49837;57.280;27.070;2023-05-07T04:56:16;101805.27;;;0.83;69.17
63691;BME280;49837;57.280;27.070;2023-05-07T04:57:16;101807.28;;;0.93;69.61
63691;BME280;49837;57.280;27.070;2023-05-07T04:58:17;101809.44;;;1.01;70.2
63691;BME280;49837;57.280;27.070;2023-05-07T04:59:17;101810.48;;;1.08;69.36
63691;BME280;49837;57.280;27.070;2023-05-07T05:00:18;101808.86;;;1.13;69.12
63691;BME280;49837;57.280;27.070;2023-05-07T05:01:18;101805.7;;;1.22;69.23
63691;BME280;49837;57.280;27.070;2023-05-07T05:02:18;101807.77;;;1.29;69.44
63691;BME280;49837;57.280;27.070;2023-05-07T05:03:18;101807.7;;;1.24;67.94
63691;BME280;49837;57.280;27.070;2023-05-07T05:04:19;101804.56;;;1.29;68.38
63691;BME280;49837;57.280;27.070;2023-05-07T05:05:19;101807.52;;;1.38;68.32
63691;BME280;49837;57.280;27.070;2023-05-07T05:06:19;101807.38;;;1.39;67.34
63691;BME280;49837;57.280;27.070;2023-05-07T05:07:20;101808.99;;;1.38;66.69
63691;BME280;49837;57.280;27.070;2023-05-07T05:08:20;101808.08;;;1.4;66.2
63691;BME280;49837;57.280;27.070;2023-05-07T05:09:20;101811.25;;;1.4;66.51
63691;BME280;49837;57.280;27.070;2023-05-07T05:10:22;101807.98;;;1.5;67.01
63691;BME280;49837;57.280;27.070;2023-05-07T05:11:21;101813.07;;;1.59;66.64
63691;BME280;49837;57.280;27.070;2023-05-07T05:12:21;101812.03;;;1.68;65.74
63691;BME280;49837;57.280;27.070;2023-05-07T05:13:22;101812.13;;;1.79;66.0
63691;BME280;49837;57.280;27.070;2023-05-07T05:14:22;101812.11;;;1.89;65.96